Time;durP1;ratioP1;P1;durP2;ratioP2;P2;SDS_P1;SDS_P2;PMS_P1;PMS_P2;Temp;Humidity;BMP_temperature;BMP_pressure;BME280_temperature;BME280_humidity;BME280_pressure;Samples;Min_cycle;Max_cycle;Signal;HPM_P1;HPM_P2
2022/05/13 00:02:02;;;;;;;;;;;;;;;17.58;52.74;100334.37;1656699;84;20588;-60
2022/05/13 00:05:06;;;;;;;;;;;;;;;17.54;52.95;100330.33;1676577;81;20235;-59
2022/05/13 00:07:36;;;;;;;;;;;;;;;17.51;53.12;100329.39;1660137;83;20361;-58
2022/05/13 00:10:42;;;;;;;;;;;;;;;17.44;53.29;100322.50;1665947;83;20210;-60
2022/05/13 00:13:46;;;;;;;;;;;;;;;17.42;53.48;100314.09;1671937;83;20227;-58
2022/05/13 00:16:51;;;;;;;;;;;;;;;17.38;53.65;100315.59;1670967;83;20282;-59
2022/05/13 00:19:56;;;;;;;;;;;;;;;17.35;53.81;100325.72;1645045;83;20266;-59
2022/05/13 00:28:04;;;;;;;;;;;;;;;17.23;54.34;100343.57;1669092;83;20251;-59
2022/05/13 00:31:09;;;;;;;;;;;;;;;17.21;54.48;100348.98;1678342;84;20642;-60
2022/05/13 00:34:14;;;;;;;;;;;;;;;17.18;54.64;100363.27;1675778;83;21080;-60
2022/05/13 00:37:19;;;;;;;;;;;;;;;17.13;54.83;100360.30;1671592;81;20552;-61
2022/05/13 00:42:52;;;;;;;;;;;;;;;17.03;55.18;100364.91;1643323;84;20201;-60
2022/05/13 00:45:57;;;;;;;;;;;;;;;17.00;55.35;100357.61;1641686;84;20213;-59
2022/05/13 00:51:37;;;;;;;;;;;;;;;16.92;55.67;100361.44;1625354;84;20300;-59
2022/05/13 00:59:42;;;;;;;;;;;;;;;16.78;56.10;100359.78;1636575;84;20198;-59
2022/05/13 01:02:48;;;;;;;;;;;;;;;16.74;56.22;100363.20;1632176;85;20254;-58
2022/05/13 01:08:22;;;;;;;;;;;;;;;16.56;56.54;100363.00;1639967;84;20202;-60
2022/05/13 01:14:01;;;;;;;;;;;;;;;16.40;56.81;100365.13;1638688;84;20224;-59
2022/05/13 01:19:49;;;;;;;;;;;;;;;16.25;57.08;100371.39;1670564;83;20587;-60
2022/05/13 01:22:58;;;;;;;;;;;;;;;16.18;57.18;100374.70;1675739;83;20187;-60
2022/05/13 01:26:05;;;;;;;;;;;;;;;16.11;57.33;100375.77;1671775;83;20268;-60
2022/05/13 01:29:09;;;;;;;;;;;;;;;16.03;57.47;100383.70;1670612;82;20266;-60
2022/05/13 01:32:15;;;;;;;;;;;;;;;15.96;57.58;100384.77;1672215;81;20283;-59
2022/05/13 01:35:19;;;;;;;;;;;;;;;15.90;57.71;100386.99;1625666;85;20550;-59
2022/05/13 01:40:52;;;;;;;;;;;;;;;15.75;57.97;100389.07;1649931;83;20311;-59
2022/05/13 01:43:57;;;;;;;;;;;;;;;15.69;58.06;100388.53;1645500;82;20205;-59
2022/05/13 01:49:33;;;;;;;;;;;;;;;15.56;58.32;100389.35;1645113;85;20261;-59
2022/05/13 01:55:07;;;;;;;;;;;;;;;15.46;58.55;100388.88;1635750;85;20203;-59
2022/05/13 02:00:40;;;;;;;;;;;;;;;15.38;58.77;100390.96;1661684;84;20518;-61
2022/05/13 02:03:45;;;;;;;;;;;;;;;15.33;58.84;100398.48;1647970;84;20189;-61
2022/05/13 02:06:50;;;;;;;;;;;;;;;15.29;58.96;100394.42;1647886;82;20208;-59
2022/05/13 02:12:26;;;;;;;;;;;;;;;15.19;59.16;100392.56;1631106;85;20212;-61
2022/05/13 02:20:46;;;;;;;;;;;;;;;15.09;59.42;100397.63;1649323;84;20230;-60
2022/05/13 02:23:51;;;;;;;;;;;;;;;15.08;59.49;100401.97;1689583;82;20331;-60
2022/05/13 02:26:58;;;;;;;;;;;;;;;15.02;59.56;100395.34;1660569;83;20244;-60
2022/05/13 02:32:34;;;;;;;;;;;;;;;14.98;59.75;100405.92;1685066;80;20209;-61
2022/05/13 02:35:40;;;;;;;;;;;;;;;14.97;59.82;100404.75;1697720;83;20238;-60
2022/05/13 02:38:45;;;;;;;;;;;;;;;14.94;59.90;100406.02;1650542;85;20247;-60
2022/05/13 02:41:51;;;;;;;;;;;;;;;14.93;59.97;100417.25;1650942;85;20539;-61
2022/05/13 02:44:56;;;;;;;;;;;;;;;14.93;60.03;100421.39;1671320;82;20252;-59
2022/05/13 02:48:03;;;;;;;;;;;;;;;14.92;60.08;100428.80;1667918;83;20210;-61
2022/05/13 02:51:08;;;;;;;;;;;;;;;14.92;60.16;100430.73;1649180;84;20583;-60
2022/05/13 02:56:43;;;;;;;;;;;;;;;14.94;60.37;100436.34;1684094;82;20581;-60
2022/05/13 03:02:17;;;;;;;;;;;;;;;14.96;60.53;100437.52;1680410;84;20616;-60
2022/05/13 03:05:22;;;;;;;;;;;;;;;14.97;60.62;100440.07;1701711;83;20232;-60
2022/05/13 03:10:56;;;;;;;;;;;;;;;15.03;60.73;100447.22;1692040;83;20216;-61
2022/05/13 03:16:34;;;;;;;;;;;;;;;15.04;60.87;100452.52;1654540;84;20272;-62
2022/05/13 03:22:11;;;;;;;;;;;;;;;15.12;61.04;100457.02;1665968;84;20232;-60
2022/05/13 03:25:17;;;;;;;;;;;;;;;15.16;61.12;100458.33;1656137;84;20307;-60
2022/05/13 03:30:50;;;;;;;;;;;;;;;15.26;61.26;100471.20;1673500;83;20215;-60
2022/05/13 03:36:31;;;;;;;;;;;;;;;15.37;61.37;100474.23;1648094;83;20198;-59
2022/05/13 03:42:06;;;;;;;;;;;;;;;15.45;61.42;100481.00;1719231;80;20205;-61
2022/05/13 03:45:13;;;;;;;;;;;;;;;15.51;61.46;100481.55;1727515;81;20193;-61
2022/05/13 03:48:19;;;;;;;;;;;;;;;15.58;61.47;100485.73;1712921;81;20572;-59
2022/05/13 03:53:54;;;;;;;;;;;;;;;15.66;61.47;100497.97;1657391;83;20204;-60
2022/05/13 03:57:02;;;;;;;;;;;;;;;15.67;61.52;100490.86;1696486;83;20196;-60
2022/05/13 04:02:38;;;;;;;;;;;;;;;15.77;61.54;100505.66;1691649;83;20536;-61
2022/05/13 04:11:01;;;;;;;;;;;;;;;15.86;61.53;100511.31;1677729;82;20211;-60
2022/05/13 04:19:57;;;;;;;;;;;;;;;16.01;61.54;100514.26;1661147;84;20336;-60
2022/05/13 04:23:05;;;;;;;;;;;;;;;16.02;61.51;100506.80;1637095;84;20568;-60
2022/05/13 04:28:41;;;;;;;;;;;;;;;16.11;61.55;100519.38;1644019;86;20242;-59
2022/05/13 04:31:47;;;;;;;;;;;;;;;16.19;61.56;100526.06;1638779;85;20549;-60
2022/05/13 04:37:20;;;;;;;;;;;;;;;16.36;61.47;100539.30;1659809;84;20204;-60
2022/05/13 04:40:25;;;;;;;;;;;;;;;16.37;61.41;100542.39;1672563;83;20221;-60
2022/05/13 04:45:58;;;;;;;;;;;;;;;16.47;61.36;100539.78;1669872;84;20900;-60
2022/05/13 04:49:05;;;;;;;;;;;;;;;16.51;61.36;100549.37;1668974;83;20344;-59
2022/05/13 04:54:36;;;;;;;;;;;;;;;16.60;61.32;100542.57;1647952;85;20256;-61
2022/05/13 04:57:40;;;;;;;;;;;;;;;16.65;61.28;100546.39;1651017;82;20273;-60
2022/05/13 05:00:47;;;;;;;;;;;;;;;16.73;61.17;100555.86;1669685;83;20575;-62
2022/05/13 05:06:23;;;;;;;;;;;;;;;16.83;61.11;100555.44;1657023;83;20587;-57
2022/05/13 05:09:24;;;;;;;;;;;;;;;16.89;61.07;100555.97;1675907;83;20270;-61
2022/05/13 05:14:59;;;;;;;;;;;;;;;17.05;60.94;100570.77;1649765;85;20263;-59
2022/05/13 05:18:07;;;;;;;;;;;;;;;17.10;60.84;100569.59;1683751;81;20278;-59
2022/05/13 05:21:12;;;;;;;;;;;;;;;17.15;60.72;100569.81;1650625;85;20545;-60
2022/05/13 05:24:17;;;;;;;;;;;;;;;17.24;60.64;100575.44;1682480;84;20213;-60
2022/05/13 05:29:53;;;;;;;;;;;;;;;17.34;60.36;100585.55;1695536;82;20630;-60
2022/05/13 05:32:57;;;;;;;;;;;;;;;17.30;60.24;100572.66;1670876;84;20242;-60
2022/05/13 05:38:35;;;;;;;;;;;;;;;17.24;60.17;100583.73;1656148;84;20601;-61
2022/05/13 05:44:11;;;;;;;;;;;;;;;17.37;60.12;100586.50;1666312;85;20233;-61
2022/05/13 05:47:19;;;;;;;;;;;;;;;17.45;60.07;100584.41;1662747;84;20263;-61
2022/05/13 05:52:56;;;;;;;;;;;;;;;17.61;59.84;100583.95;1676375;81;20268;-60
2022/05/13 05:58:30;;;;;;;;;;;;;;;17.62;59.54;100585.64;1657073;82;20231;-59
2022/05/13 06:04:06;;;;;;;;;;;;;;;17.71;59.42;100589.87;1694264;82;20209;-60
2022/05/13 06:07:19;;;;;;;;;;;;;;;17.78;59.37;100585.17;1697630;82;20309;-61
2022/05/13 06:12:54;;;;;;;;;;;;;;;18.24;59.15;100596.60;1671746;83;20290;-61
2022/05/13 06:18:27;;;;;;;;;;;;;;;18.38;58.82;100588.04;1666279;82;20705;-60
2022/05/13 06:21:33;;;;;;;;;;;;;;;18.37;58.65;100590.47;1672581;82;20233;-59
2022/05/13 06:24:38;;;;;;;;;;;;;;;18.35;58.46;100595.91;1665681;82;20579;-60
2022/05/13 06:27:48;;;;;;;;;;;;;;;18.39;58.42;100584.74;1656242;83;20211;-59
2022/05/13 06:33:18;;;;;;;;;;;;;;;18.54;58.22;100591.69;1666552;84;20242;-60
2022/05/13 06:36:24;;;;;;;;;;;;;;;18.58;58.12;100593.48;1665097;83;20222;-61
2022/05/13 06:41:59;;;;;;;;;;;;;;;18.52;57.72;100602.14;1676329;82;20328;-60
2022/05/13 06:45:06;;;;;;;;;;;;;;;18.46;57.65;100600.26;1674526;82;20667;-53
2022/05/13 06:50:38;;;;;;;;;;;;;;;18.52;57.62;100597.98;1682262;82;20247;-55
2022/05/13 06:53:42;;;;;;;;;;;;;;;18.56;57.58;100596.48;1677786;84;20647;-57
2022/05/13 06:56:54;;;;;;;;;;;;;;;18.66;57.53;100591.28;1651230;83;20540;-56
2022/05/13 07:02:23;;;;;;;;;;;;;;;18.79;57.14;100584.83;1674976;84;20254;-55
2022/05/13 07:05:28;;;;;;;;;;;;;;;18.79;57.03;100586.21;1679041;84;20238;-55
2022/05/13 07:11:02;;;;;;;;;;;;;;;18.80;56.85;100601.77;1638421;86;20263;-55
2022/05/13 07:19:05;;;;;;;;;;;;;;;19.10;56.64;100589.80;1656771;83;20235;-55
2022/05/13 07:22:10;;;;;;;;;;;;;;;19.13;56.45;100590.73;1651250;85;20223;-57
2022/05/13 07:25:16;;;;;;;;;;;;;;;19.14;56.30;100585.48;1676160;81;20282;-56
2022/05/13 07:28:22;;;;;;;;;;;;;;;19.12;56.17;100591.80;1673325;83;20312;-59
2022/05/13 07:31:27;;;;;;;;;;;;;;;19.14;56.09;100586.88;1668289;81;20217;-59
2022/05/13 07:37:02;;;;;;;;;;;;;;;19.16;55.82;100593.05;1686184;83;20250;-56
2022/05/13 07:42:56;;;;;;;;;;;;;;;19.21;55.75;100604.34;1694291;80;20821;-57
2022/05/13 07:45:24;;;;;;;;;;;;;;;19.27;55.59;100585.38;1678148;82;20270;-53
2022/05/13 07:50:47;;;;;;;;;;;;;;;19.33;55.40;100586.97;1655316;83;20377;-56
2022/05/13 07:53:53;;;;;;;;;;;;;;;19.42;55.33;100575.34;1693962;82;20309;-59
2022/05/13 07:56:59;;;;;;;;;;;;;;;19.53;55.21;100575.13;1647125;85;20268;-60
2022/05/13 08:03:30;;;;;;;;;;;;;;;19.71;55.03;100577.94;1657252;83;20217;-57
2022/05/13 08:06:37;;;;;;;;;;;;;;;19.76;54.94;100569.73;1666620;81;20225;-58
2022/05/13 08:09:44;;;;;;;;;;;;;;;19.84;54.85;100580.55;1672463;82;20676;-59
2022/05/13 08:12:50;;;;;;;;;;;;;;;19.88;54.70;100567.38;1658417;83;20639;-57
2022/05/13 08:18:23;;;;;;;;;;;;;;;19.99;54.33;100581.02;1673447;83;20561;-57
2022/05/13 08:24:02;;;;;;;;;;;;;;;19.97;54.05;100581.25;1671136;84;20600;-56
2022/05/13 08:29:37;;;;;;;;;;;;;;;20.09;53.83;100585.51;1663590;83;20581;-54
2022/05/13 08:36:19;;;;;;;;;;;;;;;20.22;53.53;100597.33;1852687;76;20500;-54
2022/05/13 08:39:25;;;;;;;;;;;;;;;20.19;53.25;100621.96;1804527;78;20237;-55
2022/05/13 08:42:45;;;;;;;;;;;;;;;20.19;53.06;100595.55;1800929;79;20207;-56
2022/05/13 08:46:01;;;;;;;;;;;;;;;20.21;52.92;100594.25;1806436;79;20207;-57
2022/05/13 08:49:44;;;;;;;;;;;;;;;20.26;52.69;100579.64;1806527;79;20211;-55
2022/05/13 08:53:08;;;;;;;;;;;;;;;20.33;52.52;100596.55;1779635;79;20195;-54
2022/05/13 08:56:16;;;;;;;;;;;;;;;20.34;52.20;100596.84;1772324;78;20277;-56
2022/05/13 08:59:28;;;;;;;;;;;;;;;20.32;51.91;100594.86;1782929;78;20206;-58
2022/05/13 09:02:45;;;;;;;;;;;;;;;20.29;51.72;100591.69;1799524;79;20195;-54
2022/05/13 09:06:05;;;;;;;;;;;;;;;20.29;51.47;100598.64;1774641;79;20220;-55
2022/05/13 09:09:56;;;;;;;;;;;;;;;20.27;51.33;100586.89;1804117;78;20266;-60
2022/05/13 09:13:16;;;;;;;;;;;;;;;20.36;51.08;100591.07;1804433;79;20211;-60
2022/05/13 09:16:21;;;;;;;;;;;;;;;20.36;50.84;100582.16;1803414;79;20230;-60
2022/05/13 09:19:35;;;;;;;;;;;;;;;20.45;50.65;100589.13;1806814;79;20543;-60
2022/05/13 09:22:41;;;;;;;;;;;;;;;20.50;50.43;100595.37;1789562;79;20238;-61
2022/05/13 09:25:52;;;;;;;;;;;;;;;20.58;50.20;100602.83;1806378;79;20580;-61
2022/05/13 09:29:20;;;;;;;;;;;;;;;20.63;50.00;100596.02;1804972;78;20240;-61
2022/05/13 09:32:34;;;;;;;;;;;;;;;20.68;49.78;100593.37;1787273;79;20215;-60
2022/05/13 09:35:43;;;;;;;;;;;;;;;20.68;49.50;100593.37;1773503;80;20198;-61
2022/05/13 09:38:51;;;;;;;;;;;;;;;20.70;49.37;100575.91;1800632;79;20207;-61
2022/05/13 09:41:56;;;;;;;;;;;;;;;20.80;49.27;100581.73;1790995;79;20249;-61
2022/05/13 09:45:23;;;;;;;;;;;;;;;20.98;49.15;100575.28;1748580;81;20217;-61
2022/05/13 09:48:28;;;;;;;;;;;;;;;21.11;48.97;100589.52;1742253;80;20213;-60
2022/05/13 09:51:40;;;;;;;;;;;;;;;21.24;48.63;100585.13;1798594;79;20195;-60
2022/05/13 09:54:57;;;;;;;;;;;;;;;21.27;48.25;100584.12;1786634;79;20531;-58
2022/05/13 09:58:34;;;;;;;;;;;;;;;21.28;47.92;100575.23;1788343;79;20519;-59
2022/05/13 10:01:42;;;;;;;;;;;;;;;21.37;47.73;100587.16;1806003;79;20584;-55
2022/05/13 10:04:50;;;;;;;;;;;;;;;21.60;47.51;100572.37;1777661;78;20231;-55
2022/05/13 10:08:04;;;;;;;;;;;;;;;21.83;47.36;100562.11;1768536;80;20236;-53
2022/05/13 10:14:56;;;;;;;;;;;;;;;22.34;46.79;100582.71;1821293;77;20622;-51
2022/05/13 10:18:27;;;;;;;;;;;;;;;22.38;46.37;100589.48;1806078;78;20203;-52
2022/05/13 10:21:42;;;;;;;;;;;;;;;22.39;46.13;100587.00;1794891;78;20501;-53
2022/05/13 10:24:55;;;;;;;;;;;;;;;22.42;45.84;100578.13;1796743;79;20215;-53
2022/05/13 10:28:11;;;;;;;;;;;;;;;22.52;45.66;100568.58;1811219;78;20204;-52
2022/05/13 10:31:24;;;;;;;;;;;;;;;22.58;45.44;100559.23;1779993;79;20207;-53
2022/05/13 10:34:39;;;;;;;;;;;;;;;22.73;45.33;100565.09;1773428;81;20265;-52
2022/05/13 10:38:26;;;;;;;;;;;;;;;22.84;45.09;100569.77;1773847;80;20605;-54
2022/05/13 10:41:52;;;;;;;;;;;;;;;22.84;44.76;100569.77;1774249;81;20286;-52
2022/05/13 10:45:14;;;;;;;;;;;;;;;22.82;44.46;100569.16;1777653;78;20238;-54
2022/05/13 10:48:27;;;;;;;;;;;;;;;22.85;44.28;100574.28;1772861;78;20230;-51
2022/05/13 10:51:54;;;;;;;;;;;;;;;22.81;43.87;100563.30;1783345;79;20214;-55
2022/05/13 10:55:17;;;;;;;;;;;;;;;22.68;43.61;100570.58;1792254;78;20226;-54
2022/05/13 10:58:51;;;;;;;;;;;;;;;22.50;43.29;100554.84;1797814;78;20604;-54
2022/05/13 11:02:12;;;;;;;;;;;;;;;22.46;43.22;100563.97;1756421;80;20777;-52
2022/05/13 11:05:32;;;;;;;;;;;;;;;22.54;43.10;100573.38;1792200;79;20239;-51
2022/05/13 11:09:09;;;;;;;;;;;;;;;22.63;42.91;100564.36;1798410;78;20227;-52
2022/05/13 11:12:39;;;;;;;;;;;;;;;22.81;42.76;100547.94;1800682;79;20246;-53
2022/05/13 11:16:06;;;;;;;;;;;;;;;23.02;42.53;100548.06;1795939;78;20494;-54
2022/05/13 11:19:37;;;;;;;;;;;;;;;23.11;42.17;100544.28;1795774;78;20442;-56
2022/05/13 11:22:50;;;;;;;;;;;;;;;23.15;41.95;100542.13;1802970;79;20207;-54
2022/05/13 11:26:19;;;;;;;;;;;;;;;23.17;41.76;100560.02;1779925;79;20524;-55
2022/05/13 11:29:36;;;;;;;;;;;;;;;23.06;41.45;100556.77;1793711;79;20222;-55
2022/05/13 11:33:03;;;;;;;;;;;;;;;22.95;41.46;100538.14;1785224;79;20207;-54
2022/05/13 11:36:26;;;;;;;;;;;;;;;23.04;41.35;100533.84;1786616;79;20207;-55
2022/05/13 11:39:52;;;;;;;;;;;;;;;23.01;41.26;100539.38;1784519;78;20252;-54
2022/05/13 11:43:19;;;;;;;;;;;;;;;23.05;41.21;100550.36;1772076;80;20878;-57
2022/05/13 11:47:00;;;;;;;;;;;;;;;23.03;41.06;100546.10;1772530;80;20221;-55
2022/05/13 11:50:07;;;;;;;;;;;;;;;22.95;40.91;100547.91;1772632;80;20202;-56
2022/05/13 11:53:12;;;;;;;;;;;;;;;22.85;40.84;100552.77;1800605;79;20234;-56
2022/05/13 11:56:31;;;;;;;;;;;;;;;22.85;40.73;100544.96;1801078;79;20254;-56
2022/05/13 11:59:38;;;;;;;;;;;;;;;22.82;40.72;100554.67;1804702;79;20250;-55
2022/05/13 12:03:00;;;;;;;;;;;;;;;22.79;40.58;100546.80;1804258;78;20203;-57
2022/05/13 12:06:13;;;;;;;;;;;;;;;22.81;40.54;100557.17;1782103;79;20267;-56
2022/05/13 12:09:18;;;;;;;;;;;;;;;22.90;40.53;100551.47;1803814;78;20207;-57
2022/05/13 12:12:29;;;;;;;;;;;;;;;22.98;40.47;100577.58;1807929;78;20246;-55
2022/05/13 12:15:38;;;;;;;;;;;;;;;23.04;40.36;100560.38;1788805;79;20267;-57
2022/05/13 12:19:05;;;;;;;;;;;;;;;22.99;40.26;100562.51;1796622;78;20335;-57
2022/05/13 12:22:38;;;;;;;;;;;;;;;23.02;40.23;100544.42;1747399;79;20230;-55
2022/05/13 12:25:47;;;;;;;;;;;;;;;22.98;40.18;100571.14;1802800;79;20200;-54
2022/05/13 12:29:04;;;;;;;;;;;;;;;22.78;40.07;100545.12;1805849;79;20579;-55
2022/05/13 12:32:12;;;;;;;;;;;;;;;22.74;40.06;100538.89;1800080;79;20255;-56
2022/05/13 12:39:06;;;;;;;;;;;;;;;22.79;39.98;100543.15;1794926;78;20225;-56
2022/05/13 12:42:17;;;;;;;;;;;;;;;22.82;39.96;100530.08;1780434;79;20249;-56
2022/05/13 12:45:47;;;;;;;;;;;;;;;22.88;39.91;100550.04;1781523;79;20215;-56
2022/05/13 12:49:13;;;;;;;;;;;;;;;22.91;39.85;100550.36;1802664;79;20211;-55
2022/05/13 12:52:36;;;;;;;;;;;;;;;22.97;39.72;100550.77;1771180;79;20434;-56
2022/05/13 12:55:42;;;;;;;;;;;;;;;22.92;39.58;100549.81;1796125;79;20257;-56
2022/05/13 12:58:50;;;;;;;;;;;;;;;22.81;39.39;100525.61;1767631;79;20208;-56
2022/05/13 13:01:57;;;;;;;;;;;;;;;22.71;39.39;100523.48;1780923;79;20258;-61
2022/05/13 13:05:11;;;;;;;;;;;;;;;22.70;39.37;100532.10;1787984;78;20207;-59
2022/05/13 13:08:29;;;;;;;;;;;;;;;22.65;39.25;100520.84;1802905;79;20250;-61
2022/05/13 13:11:44;;;;;;;;;;;;;;;22.69;39.21;100525.66;1800239;79;20195;-61
2022/05/13 13:15:07;;;;;;;;;;;;;;;22.75;39.13;100537.79;1802671;79;20195;-60
2022/05/13 13:18:18;;;;;;;;;;;;;;;22.75;38.97;100531.66;1804345;79;20270;-58
2022/05/13 13:21:25;;;;;;;;;;;;;;;22.81;38.88;100549.34;1805115;79;20238;-61
2022/05/13 13:24:38;;;;;;;;;;;;;;;22.81;38.75;100526.47;1805490;79;20654;-59
2022/05/13 13:27:43;;;;;;;;;;;;;;;22.83;38.66;100522.88;1804367;79;20242;-60
2022/05/13 13:30:52;;;;;;;;;;;;;;;22.87;38.60;100533.83;1804625;79;20218;-61
2022/05/13 13:33:59;;;;;;;;;;;;;;;22.91;38.46;100518.81;1798227;78;20207;-58
2022/05/13 13:37:03;;;;;;;;;;;;;;;22.80;38.31;100513.58;1789833;79;20548;-59
2022/05/13 13:40:21;;;;;;;;;;;;;;;22.76;38.23;100539.47;1787718;79;20597;-61
2022/05/13 13:43:30;;;;;;;;;;;;;;;22.68;38.07;100526.77;1775423;80;20209;-61
2022/05/13 13:46:41;;;;;;;;;;;;;;;22.69;38.06;100520.08;1769051;81;20206;-59
2022/05/13 13:49:47;;;;;;;;;;;;;;;23.06;38.03;100528.30;1772366;81;20217;-61
2022/05/13 13:52:52;;;;;;;;;;;;;;;23.29;37.76;100524.52;1795710;79;20241;-62
2022/05/13 13:55:57;;;;;;;;;;;;;;;23.14;37.63;100515.30;1797804;80;20264;-61
2022/05/13 13:59:09;;;;;;;;;;;;;;;23.00;37.57;100531.25;1798383;80;20233;-62
2022/05/13 14:02:13;;;;;;;;;;;;;;;22.91;37.56;100514.05;1798465;80;20261;-61
2022/05/13 14:05:18;;;;;;;;;;;;;;;22.90;37.55;100512.38;1790129;79;20520;-62
2022/05/13 14:08:25;;;;;;;;;;;;;;;22.74;37.44;100529.95;1776168;79;20248;-61
2022/05/13 14:11:30;;;;;;;;;;;;;;;22.50;37.39;100523.33;1771691;79;20445;-61
2022/05/13 14:14:37;;;;;;;;;;;;;;;22.44;37.41;100534.92;1797986;78;20510;-62
2022/05/13 14:17:44;;;;;;;;;;;;;;;22.46;37.34;100516.00;1806132;79;20215;-60
2022/05/13 14:20:51;;;;;;;;;;;;;;;22.60;37.28;100513.77;1807007;79;20223;-61
2022/05/13 14:24:08;;;;;;;;;;;;;;;22.63;37.15;100514.69;1806516;78;20199;-60
2022/05/13 14:27:24;;;;;;;;;;;;;;;22.50;37.08;100521.36;1806945;79;20555;-60
2022/05/13 14:30:30;;;;;;;;;;;;;;;22.37;37.07;100509.67;1806149;79;20238;-62
2022/05/13 14:33:37;;;;;;;;;;;;;;;22.27;37.03;100503.89;1772590;79;20240;-61
2022/05/13 14:36:47;;;;;;;;;;;;;;;22.19;37.00;100507.92;1786198;79;20209;-60
2022/05/13 14:39:58;;;;;;;;;;;;;;;22.15;36.93;100504.78;1772524;81;20562;-61
2022/05/13 14:43:06;;;;;;;;;;;;;;;22.27;36.93;100508.07;1773104;81;20261;-61
2022/05/13 14:46:18;;;;;;;;;;;;;;;22.48;36.90;100508.77;1756237;81;20226;-62
2022/05/13 14:49:44;;;;;;;;;;;;;;;22.65;36.77;100502.70;1749683;81;20241;-61
2022/05/13 14:52:59;;;;;;;;;;;;;;;22.72;36.73;100507.59;1797913;78;20579;-60
2022/05/13 14:56:05;;;;;;;;;;;;;;;22.71;36.63;100501.69;1794930;78;20571;-60
2022/05/13 14:59:12;;;;;;;;;;;;;;;22.65;36.57;100501.30;1788903;79;20233;-61
2022/05/13 15:02:20;;;;;;;;;;;;;;;22.50;36.58;100499.05;1792113;78;20211;-60
2022/05/13 15:05:48;;;;;;;;;;;;;;;22.29;36.58;100504.49;1802242;78;20205;-60
2022/05/13 15:09:01;;;;;;;;;;;;;;;22.05;36.62;100497.63;1794267;79;20230;-62
2022/05/13 15:12:08;;;;;;;;;;;;;;;21.92;36.66;100497.91;1773372;81;20620;-61
2022/05/13 15:15:15;;;;;;;;;;;;;;;21.79;36.70;100495.38;1779614;79;20238;-60
2022/05/13 15:18:24;;;;;;;;;;;;;;;21.72;36.77;100489.62;1784842;79;20198;-60
2022/05/13 15:21:32;;;;;;;;;;;;;;;21.60;36.80;100497.13;1805555;79;20199;-61
2022/05/13 15:24:38;;;;;;;;;;;;;;;21.51;36.86;100494.43;1806822;79;20211;-60
2022/05/13 15:27:48;;;;;;;;;;;;;;;21.45;36.91;100487.91;1806515;79;20601;-60
2022/05/13 15:30:57;;;;;;;;;;;;;;;21.46;36.95;100487.34;1777802;78;20727;-62
2022/05/13 15:34:04;;;;;;;;;;;;;;;21.46;36.92;100490.99;1822150;78;20631;-61
2022/05/13 15:37:08;;;;;;;;;;;;;;;21.41;36.95;100496.44;1802033;78;20620;-62
2022/05/13 15:40:15;;;;;;;;;;;;;;;21.32;36.97;100509.58;1801735;78;20203;-60
2022/05/13 15:43:20;;;;;;;;;;;;;;;21.22;37.03;100510.19;1803207;79;20215;-61
2022/05/13 15:46:29;;;;;;;;;;;;;;;21.11;37.11;100504.08;1784419;78;20247;-61
2022/05/13 15:53:04;;;;;;;;;;;;;;;20.94;37.27;100503.06;1774778;80;20210;-60
2022/05/13 15:56:14;;;;;;;;;;;;;;;20.91;37.33;100501.30;1804349;79;20211;-62
2022/05/13 15:59:24;;;;;;;;;;;;;;;20.86;37.37;100499.23;1806600;79;20219;-58
2022/05/13 16:02:45;;;;;;;;;;;;;;;20.77;37.40;100501.51;1775064;80;20300;-60
2022/05/13 16:05:48;;;;;;;;;;;;;;;20.66;37.49;100497.34;1774701;81;20213;-57
2022/05/13 16:08:54;;;;;;;;;;;;;;;20.55;37.56;100509.28;1786665;79;20533;-59
2022/05/13 16:12:07;;;;;;;;;;;;;;;20.42;37.63;100498.34;1802113;78;20294;-57
2022/05/13 16:15:13;;;;;;;;;;;;;;;20.32;37.72;100500.31;1800662;78;20211;-56
2022/05/13 16:18:22;;;;;;;;;;;;;;;20.23;37.79;100503.66;1791387;78;20819;-59
2022/05/13 16:21:30;;;;;;;;;;;;;;;20.15;37.88;100491.47;1772249;80;20472;-59
2022/05/13 16:24:41;;;;;;;;;;;;;;;20.08;37.95;100493.45;1768575;81;20245;-58
2022/05/13 16:27:48;;;;;;;;;;;;;;;20.00;37.99;100489.61;1769181;81;20209;-58
2022/05/13 16:30:52;;;;;;;;;;;;;;;19.93;38.08;100491.08;1768897;81;20217;-57
2022/05/13 16:33:58;;;;;;;;;;;;;;;19.87;38.15;100493.41;1768546;81;20252;-56
2022/05/13 16:37:48;;;;;;;;;;;;;;;19.80;38.21;100489.88;1768841;81;20854;-57
2022/05/13 16:40:07;;;;;;;;;;;;;;;19.76;38.28;100491.94;1764066;81;20531;-58
2022/05/13 16:43:13;;;;;;;;;;;;;;;19.72;38.36;100489.34;1769139;81;20209;-59
2022/05/13 16:46:19;;;;;;;;;;;;;;;19.67;38.41;100483.63;1774332;80;20224;-58
2022/05/13 16:49:26;;;;;;;;;;;;;;;19.60;38.48;100484.27;1801642;80;20192;-57
2022/05/13 16:52:32;;;;;;;;;;;;;;;19.54;38.51;100486.55;1801920;80;20183;-58
2022/05/13 16:55:38;;;;;;;;;;;;;;;19.47;38.57;100491.35;1776520;80;20198;-59
2022/05/13 16:58:44;;;;;;;;;;;;;;;19.38;38.63;100483.02;1769747;81;20198;-59
2022/05/13 17:01:49;;;;;;;;;;;;;;;19.31;38.71;100480.31;1769802;81;20557;-59
2022/05/13 17:04:54;;;;;;;;;;;;;;;19.24;38.78;100488.67;1769852;81;20210;-59
2022/05/13 17:08:02;;;;;;;;;;;;;;;19.16;38.83;100486.20;1769821;81;20553;-59
2022/05/13 17:17:52;;;;;;;;;;;;;;;18.84;39.04;100487.35;1774271;79;20213;-60
2022/05/13 17:20:57;;;;;;;;;;;;;;;18.72;39.13;100484.16;1773808;80;20273;-60
2022/05/13 17:24:02;;;;;;;;;;;;;;;18.62;39.24;100481.88;1774609;81;20194;-60
2022/05/13 17:27:13;;;;;;;;;;;;;;;18.53;39.31;100486.55;1773911;81;20480;-61
2022/05/13 17:30:19;;;;;;;;;;;;;;;18.41;39.40;100491.95;1788121;79;20601;-61
2022/05/13 17:33:24;;;;;;;;;;;;;;;18.32;39.48;100490.50;1806722;79;20532;-60
2022/05/13 17:36:30;;;;;;;;;;;;;;;18.24;39.59;100489.91;1807003;79;20203;-60
2022/05/13 17:39:38;;;;;;;;;;;;;;;18.17;39.68;100495.48;1807211;79;20223;-61
2022/05/13 17:42:46;;;;;;;;;;;;;;;18.07;39.81;100499.30;1807177;79;20195;-61
2022/05/13 17:45:53;;;;;;;;;;;;;;;17.97;39.88;100496.66;1806482;79;20204;-60
2022/05/13 17:48:58;;;;;;;;;;;;;;;17.81;39.92;100498.02;1806500;79;20211;-60
2022/05/13 17:52:04;;;;;;;;;;;;;;;17.66;40.01;100504.38;1806194;79;20639;-60
2022/05/13 17:55:14;;;;;;;;;;;;;;;17.53;40.11;100501.65;1806151;79;20638;-60
2022/05/13 17:58:20;;;;;;;;;;;;;;;17.37;40.23;100502.09;1788348;79;20544;-61
2022/05/13 18:01:26;;;;;;;;;;;;;;;17.23;40.40;100499.04;1806712;79;20175;-60
2022/05/13 18:04:33;;;;;;;;;;;;;;;17.14;40.58;100508.64;1806294;79;20259;-61
2022/05/13 18:07:38;;;;;;;;;;;;;;;17.03;40.74;100510.67;1774482;81;20252;-61
2022/05/13 18:10:44;;;;;;;;;;;;;;;16.92;40.89;100503.86;1774630;81;20265;-61
2022/05/13 18:13:48;;;;;;;;;;;;;;;16.83;41.07;100507.05;1775253;81;20743;-60
2022/05/13 18:16:55;;;;;;;;;;;;;;;16.74;41.27;100510.58;1782125;77;20306;-61
2022/05/13 18:20:03;;;;;;;;;;;;;;;16.65;41.43;100504.92;1807252;79;20200;-62
2022/05/13 18:23:10;;;;;;;;;;;;;;;16.55;41.60;100503.12;1808028;78;20244;-61
2022/05/13 18:26:17;;;;;;;;;;;;;;;16.48;41.78;100516.08;1822134;78;20268;-61
2022/05/13 18:29:23;;;;;;;;;;;;;;;16.39;41.94;100520.91;1834154;78;20218;-61
2022/05/13 18:32:29;;;;;;;;;;;;;;;16.30;42.12;100519.41;1813558;78;20279;-60
2022/05/13 18:35:37;;;;;;;;;;;;;;;16.21;42.34;100515.16;1774676;81;20566;-62
2022/05/13 18:38:42;;;;;;;;;;;;;;;16.13;42.50;100517.24;1774865;81;20213;-61
2022/05/13 18:48:37;;;;;;;;;;;;;;;15.90;43.13;100514.83;1775858;81;20197;-61
2022/05/13 18:51:43;;;;;;;;;;;;;;;15.83;43.33;100505.69;1775222;81;20489;-61
2022/05/13 18:54:48;;;;;;;;;;;;;;;15.77;43.50;100515.31;1789495;79;20512;-62
2022/05/13 18:57:52;;;;;;;;;;;;;;;15.70;43.69;100511.15;1806562;78;20192;-61
2022/05/13 19:00:57;;;;;;;;;;;;;;;15.66;43.85;100509.88;1806978;79;20242;-60
2022/05/13 19:04:01;;;;;;;;;;;;;;;15.60;44.02;100516.19;1806968;78;20559;-61
2022/05/13 19:07:05;;;;;;;;;;;;;;;15.55;44.18;100521.49;1807467;79;20195;-61
2022/05/13 19:10:11;;;;;;;;;;;;;;;15.50;44.38;100522.63;1807223;78;20691;-62